Flight Track Log - Related Links

Times and Time Zones

All times are in EDT time to prevent confusion due to time zone crossing. See the KFA273 flight status page for this flight to view local times or setup timezone preferences in your user account.

Time Position Orientation Groundspeed Altitude Reporting Facility
EDT Latitude Longitude Course Direction KTS MPH feet Rate Location/Type
Fri 04:25:33 AM 49.9333 -97.3500 291° West 230 265 3,800  Level Winnipeg Center
Fri 04:26:33 AM 49.9500 -97.4667 283° West 270 311 6,400 2,950 Climbing Winnipeg Center
Fri 04:27:33 AM 49.9667 -97.5833 283° West 290 334 9,700 2,650 Climbing Winnipeg Center
Fri 04:28:33 AM 50.0000 -97.7167 291° West 330 380 11,700 2,400 Climbing Winnipeg Center
Fri 04:29:33 AM 50.0333 -97.8500 291° West 360 414 14,500 2,550 Climbing Winnipeg Center
Fri 04:30:00 AM 50.1664 -98.1259 294° West  Level FlightAware Approximate
Fri 04:30:33 AM 50.0667 -98.0000 289° West 390 449 16,800  Level Winnipeg Center
Fri 04:31:33 AM 50.0833 -98.1667 279° West 400 460 18,000 1,750 Climbing Winnipeg Center
Fri 04:32:33 AM 50.1333 -98.3500 293° West 420 483 20,300 2,000 Climbing Winnipeg Center
Fri 04:33:33 AM 50.1667 -98.5333 286° West 440 506 22,000 1,800 Climbing Winnipeg Center
Fri 04:34:33 AM 50.2000 -98.7167 286° West 440 506 23,900 1,650 Climbing Winnipeg Center
Fri 04:35:33 AM 50.2500 -98.9000 293° West 460 529 25,300 1,300 Climbing Winnipeg Center
Fri 04:36:33 AM 50.2833 -99.1167 284° West 470 541 26,500 1,450 Climbing Winnipeg Center
Fri 04:37:33 AM 50.3167 -99.3167 285° West 480 552 28,200 1,750 Climbing Winnipeg Center
Fri 04:38:33 AM 50.3667 -99.5167 291° West 480 552 30,000 1,600 Climbing Winnipeg Center
Fri 04:39:33 AM 50.4000 -99.7000 286° West 470 541 31,400 950 Climbing Winnipeg Center
Fri 04:40:33 AM 50.4333 -99.9000 285° West 480 552 31,900 300 Climbing Winnipeg Center
Fri 04:41:33 AM 50.4667 -100.1167 284° West 480 552 32,000 50 Climbing Winnipeg Center
Fri 04:42:33 AM 50.5500 -100.2833 308° West 470 541 32,000  Level Winnipeg Center
Fri 04:43:33 AM 50.6333 -100.4500 308° West 470 541 32,000  Level Winnipeg Center
Fri 04:44:33 AM 50.6667 -100.6333 286° West 470 541 32,000 50 Level Winnipeg Center
Fri 04:45:33 AM 50.7333 -100.8333 298° West 460 529 32,100  Climbing Winnipeg Center
Fri 04:46:33 AM 50.8000 -100.9833 305° West 460 529 32,000 -50 Descending Winnipeg Center
Fri 04:47:33 AM 50.8333 -101.1833 285° West 460 529 32,000  Level Winnipeg Center
Fri 04:48:33 AM 50.9167 -101.3500 308° West 460 529 32,000  Level Winnipeg Center
Fri 04:49:33 AM 50.9667 -101.5333 293° West 450 518 32,000  Level Winnipeg Center
Fri 04:50:33 AM 51.0167 -101.7333 292° West 450 518 32,000  Level Winnipeg Center
Fri 04:51:33 AM 51.0833 -101.9000 303° West 450 518 32,000  Level Winnipeg Center
Fri 04:52:33 AM 51.1333 -102.0833 294° West 450 518 32,000  Level Winnipeg Center
Fri 04:53:33 AM 51.1833 -102.2500 296° West 450 518 32,000  Level Winnipeg Center
Fri 04:54:33 AM 51.2333 -102.4167 296° West 450 518 32,000 50 Level Winnipeg Center
Fri 04:55:33 AM 51.2833 -102.6167 292° West 450 518 32,100  Climbing Winnipeg Center
Fri 04:56:33 AM 51.3167 -102.8000 286° West 440 506 32,000 -50 Descending Winnipeg Center
Fri 04:57:33 AM 51.3667 -103.0000 292° West 440 506 32,000  Level Winnipeg Center
Fri 04:58:33 AM 51.4000 -103.1667 288° West 440 506 32,000  Level Winnipeg Center
Fri 04:59:33 AM 51.4667 -103.3667 298° West 440 506 32,000  Level Winnipeg Center
Fri 05:00:33 AM 51.4833 -103.5333 279° West 430 495 32,000  Level Winnipeg Center
Fri 05:01:33 AM 51.5333 -103.7167 294° West 430 495 32,000  Level Winnipeg Center
Fri 05:02:33 AM 51.5833 -103.9167 292° West 430 495 32,000  Level Winnipeg Center
Fri 05:03:33 AM 51.6167 -104.0833 288° West 430 495 32,000  Level Winnipeg Center
Fri 05:04:33 AM 51.6667 -104.2833 292° West 430 495 32,000  Level Winnipeg Center
Fri 05:05:33 AM 51.7000 -104.4500 288° West 430 495 32,000  Level Winnipeg Center
Fri 05:06:33 AM 51.7333 -104.6500 285° West 430 495 32,000  Level Winnipeg Center
Fri 05:07:33 AM 51.7833 -104.8167 296° West 430 495 32,000  Level Winnipeg Center
Fri 05:08:33 AM 51.8167 -104.9833 288° West 420 483 32,000  Level Winnipeg Center
Fri 05:09:33 AM 51.8500 -105.1667 286° West 420 483 32,000  Level Winnipeg Center
Fri 05:10:33 AM 51.8833 -105.3667 285° West 420 483 32,000  Level Winnipeg Center
Fri 05:11:33 AM 51.9333 -105.5333 296° West 420 483 32,000  Level Winnipeg Center
Fri 05:12:33 AM 51.9667 -105.7333 285° West 420 483 32,000  Level Winnipeg Center
Fri 05:13:33 AM 52.0000 -105.9000 288° West 420 483 32,000  Level Winnipeg Center
Fri 05:14:33 AM 52.0333 -106.0667 288° West 420 483 32,000  Level Winnipeg Center
Fri 05:15:33 AM 52.0833 -106.2500 294° West 420 483 32,000  Level Winnipeg Center
Fri 05:16:33 AM 52.1000 -106.4167 279° West 420 483 32,000  Level Winnipeg Center
Fri 05:17:33 AM 52.1333 -106.5833 288° West 420 483 32,000  Level Winnipeg Center
Fri 05:18:33 AM 52.1667 -106.7833 285° West 410 472 32,000  Level Winnipeg Center
Fri 05:19:33 AM 52.2000 -106.9500 288° West 410 472 32,000  Level Winnipeg Center
Fri 05:20:33 AM 52.2333 -107.1500 285° West 410 472 32,000  Level Winnipeg Center
Fri 05:21:33 AM 52.2667 -107.3333 287° West 410 472 32,000  Level Winnipeg Center
Fri 05:22:33 AM 52.2833 -107.5333 278° West 410 472 32,000  Level Winnipeg Center
Fri 05:23:33 AM 52.3167 -107.7000 288° West 410 472 32,000  Level Winnipeg Center
Fri 05:24:33 AM 52.3500 -107.8833 287° West 410 472 32,000  Level Winnipeg Center
Fri 05:25:33 AM 52.3833 -108.0500 288° West 410 472 32,000  Level Winnipeg Center
Fri 05:26:33 AM 52.4000 -108.2167 279° West 410 472 32,000  Level Winnipeg Center
Fri 05:27:33 AM 52.4333 -108.4167 285° West 410 472 32,000  Level Winnipeg Center
Fri 05:28:33 AM 52.4667 -108.6000 287° West 410 472 32,000  Level Winnipeg Center
Fri 05:29:33 AM 52.5000 -108.8000 285° West 410 472 32,000  Level Winnipeg Center
Fri 05:30:33 AM 52.5167 -108.9667 279° West 410 472 32,000  Level Winnipeg Center
Fri 05:31:33 AM 52.5500 -109.1500 287° West 410 472 32,000  Level Winnipeg Center
Fri 05:32:33 AM 52.5833 -109.3167 288° West 410 472 32,000  Level Winnipeg Center
Fri 05:33:33 AM 52.6167 -109.5333 284° West 410 472 32,000  Level Winnipeg Center
Fri 05:34:33 AM 52.6333 -109.7000 279° West 410 472 32,000  Level Winnipeg Center
Fri 05:35:33 AM 52.6667 -109.8833 287° West 410 472 32,000  Level Winnipeg Center
Fri 05:36:33 AM 52.6833 -110.0500 279° West 410 472 32,000  Level Winnipeg Center
Fri 05:37:33 AM 52.7167 -110.2500 285° West 410 472 32,000  Level Winnipeg Center
Fri 05:38:33 AM 52.7500 -110.4333 287° West 410 472 32,000  Level Winnipeg Center
Fri 05:39:33 AM 52.7667 -110.6333 278° West 410 472 32,000  Level Winnipeg Center
Fri 05:40:33 AM 52.7833 -110.8167 279° West 410 472 32,000  Level Winnipeg Center
Fri 05:41:33 AM 52.8167 -110.9833 288° West 410 472 32,000  Level Winnipeg Center
Fri 05:42:33 AM 52.8500 -111.1667 287° West 410 472 32,000  Level Winnipeg Center
Fri 05:43:33 AM 52.8667 -111.3333 279° West 410 472 32,000  Level Winnipeg Center
Fri 05:44:33 AM 52.8833 -111.5500 277° West 410 472 32,000 -700 Level Winnipeg Center
Fri 05:45:33 AM 52.9167 -111.7333 287° West 410 472 30,600 -2,100 Descending Winnipeg Center
Fri 05:46:33 AM 52.9500 -111.9000 288° West 410 472 27,800 -3,150 Descending Winnipeg Center
Fri 05:47:33 AM 52.9667 -112.0833 279° West 390 449 24,300 -2,650 Descending Winnipeg Center
Fri 05:48:33 AM 52.9833 -112.2500 279° West 390 449 22,500 -2,250 Descending Winnipeg Center
Fri 05:49:33 AM 53.0167 -112.4167 288° West 380 437 19,800 -2,250 Descending Winnipeg Center
Fri 05:50:33 AM 53.0500 -112.5833 288° West 370 426 18,000 -2,200 Descending Winnipeg Center
Fri 05:51:33 AM 53.0667 -112.7500 280° West 360 414 15,400 -2,650 Descending Winnipeg Center
Fri 05:52:33 AM 53.1000 -112.9000 290° West 350 403 12,700 -2,450 Descending Winnipeg Center
Fri 05:53:33 AM 53.1333 -113.0500 290° West 340 391 10,500 -2,400 Descending Winnipeg Center
Fri 05:54:38 AM 53.1500 -113.1500 286° West 270 311 7,700 -2,016 Descending Edmonton Center
Fri 05:55:38 AM 53.1333 -113.2333 252° West 240 276 6,300 -1,200 Descending Edmonton Center
Fri 05:56:38 AM 53.1167 -113.3500 257° West 190 219 5,300 -800 Descending Edmonton Center
Fri 05:57:38 AM 53.1500 -113.3833 329° Northwest 140 161 4,700 -300 Descending Edmonton Center
Fri 05:58:38 AM 53.1667 -113.4500 293° West 130 150 4,700 -250 Level Edmonton Center
Fri 05:59:38 AM 53.2000 -113.4833 329° Northwest 130 150 4,200 -600 Descending Edmonton Center
Fri 06:00:38 AM 53.2167 -113.5167 310° West 120 138 3,500 -650 Descending Edmonton Center
Fri 06:01:38 AM 53.2500 -113.5667 318° Northwest 120 138 2,900 -550 Descending Edmonton Center
Fri 06:02:38 AM 53.2667 -113.6000 310° West 140 161 2,400 -500 Descending Edmonton Center

Login

Don't have an account? Register now (free) for customized features, flight alerts, and more!